Accueil
METAR-TAF:

METAR-TAF

Aéroports :

Aéroport de Madrid-Cuatro Vientos

Madrid-Cuatro Vientos, Espagne

latitude: 40-23N, longitude: 003-47W, altitude: 690 m

Observation

Le bulletin a été fait il y a 46 minutes, à 14:00 UTC
Vent 4 kt de est, variant entre nord-est et sud/sud-est
Température 9°C
Humidité 57%
Pression 1029 hPa
Visibilité 10 km ou plus
pas de nuages en-dessous de 1500 mètres et pas de cumulonimbus.

METAR: LEVS 171400Z 10004KT 050V160 CAVOK 09/01 Q1029

Heure: 15:46 (14:46 UTC)

Prévision

Le bulletin a été fait il y a 46 minutes, à 14:00 UTC
Prévision valable du 17 à 15 UTC au 17 à 24 UTC
Vent 5 kt de direction variable
Visibilité 10 km ou plus
pas de nuages en-dessous de 1500 mètres et pas de cumulonimbus.
Probabilité 40% :
Temporairement
du 17 à 21 UTC au 17 à 24 UTC
Visibilité: 4000 m
Nuages épars à une hauteur de 700 ft
brume

TAF: LEVS 171400Z 1715/1724 VRB05KT CAVOK PROB40 TEMPO 1721/1724 4000 BR SCT007

Observations et prévisions météorologiques de plus de 4000 aéroports (messages METAR et TAF).

Les stations disponibles sont représentées par des disques jaunes et rouges sur la carte.

Passer la souris dessus pour voir le nom de la station.

Cliquer dessus pour voir les observations et prévisions météorologiques.

Pour changer de carte: cliquez sur les boutons verts avec une croix noire pour zoomer, sur le bouton vert avec un tiret pour effectuer un zoom arrière, ou sur les flèches vertes pour les cartes adjacentes.


METAR-TAF: